Time;durP1;ratioP1;P1;durP2;ratioP2;P2;SDS_P1;SDS_P2;PMS_P1;PMS_P2;Temp;Humidity;BMP_temperature;BMP_pressure;BME280_temperature;BME280_humidity;BME280_pressure;Samples;Min_cycle;Max_cycle;Signal;HPM_P1;HPM_P2
2022/01/22 00:02:22;;;;;;;2.47;2.27;;;5.20;99.90;;;;;;5128514;27;20271;-55
2022/01/22 00:04:50;;;;;;;2.40;2.20;;;5.20;99.90;;;;;;5132422;27;20215;-55
2022/01/22 00:07:18;;;;;;;3.10;2.80;;;5.20;99.90;;;;;;5133908;27;20569;-55
2022/01/22 00:09:53;;;;;;;3.67;3.37;;;5.20;99.90;;;;;;5129078;27;20234;-55
2022/01/22 00:12:41;;;;;;;5.27;4.77;;;5.20;99.90;;;;;;5113952;28;20288;-55
2022/01/22 00:15:11;;;;;;;4.40;4.00;;;5.20;99.90;;;;;;5113528;28;20680;-56
2022/01/22 00:17:39;;;;;;;10.00;7.73;;;5.20;99.90;;;;;;5132315;27;20209;-55
2022/01/22 00:20:10;;;;;;;14.77;9.43;;;5.20;99.90;;;;;;5115065;27;20239;-55
2022/01/22 00:22:38;;;;;;;8.80;6.07;;;5.20;99.90;;;;;;5113151;28;20648;-57
2022/01/22 00:25:09;;;;;;;6.77;5.37;;;5.20;99.90;;;;;;5113694;28;20203;-54
2022/01/22 00:27:39;;;;;;;4.23;3.83;;;5.20;99.90;;;;;;5114223;27;20204;-55
2022/01/22 00:30:10;;;;;;;3.53;3.23;;;5.20;99.90;;;;;;5134080;27;20275;-55
2022/01/22 00:32:39;;;;;;;3.20;2.90;;;5.10;99.90;;;;;;5120237;27;20252;-55
2022/01/22 00:35:08;;;;;;;3.10;2.80;;;5.10;99.90;;;;;;5113589;28;20196;-55
2022/01/22 00:37:39;;;;;;;3.03;2.83;;;5.10;99.90;;;;;;5112910;28;20737;-55
2022/01/22 00:40:11;;;;;;;3.37;3.07;;;5.10;99.90;;;;;;5113645;28;20266;-56
2022/01/22 00:42:39;;;;;;;2.23;1.80;;;5.10;99.90;;;;;;5113321;28;20275;-55
2022/01/22 00:45:08;;;;;;;1.90;1.80;;;5.10;99.90;;;;;;5125982;27;20206;-56
2022/01/22 00:47:36;;;;;;;1.70;1.60;;;5.10;99.90;;;;;;5134357;27;20207;-55
2022/01/22 00:50:05;;;;;;;1.70;1.60;;;5.20;99.90;;;;;;5133812;27;20342;-55
2022/01/22 00:52:33;;;;;;;1.90;1.80;;;5.10;99.90;;;;;;5129554;27;20270;-55
2022/01/22 00:55:01;;;;;;;1.60;1.50;;;5.10;99.90;;;;;;5112812;28;20297;-54
2022/01/22 00:57:31;;;;;;;1.60;1.50;;;5.20;99.90;;;;;;5113311;28;20203;-55
2022/01/22 00:59:59;;;;;;;1.60;1.50;;;5.10;99.90;;;;;;5107048;27;20246;-54
2022/01/22 01:02:27;;;;;;;1.43;1.40;;;5.10;99.90;;;;;;5093115;28;20216;-55
2022/01/22 01:04:55;;;;;;;1.50;1.40;;;5.10;99.90;;;;;;5092074;28;20214;-55
2022/01/22 01:07:23;;;;;;;1.53;1.43;;;5.10;99.90;;;;;;5092430;28;20203;-54
2022/01/22 01:09:51;;;;;;;1.00;1.00;;;5.20;99.90;;;;;;5098800;28;20208;-55
2022/01/22 01:12:19;;;;;;;1.53;1.43;;;5.20;99.90;;;;;;5117456;27;20195;-55
2022/01/22 01:15:05;;;;;;;1.50;1.40;;;5.20;99.90;;;;;;5126728;27;20676;-54
2022/01/22 01:17:57;;;;;;;1.20;1.20;;;5.20;99.90;;;;;;5112749;28;20211;-55
2022/01/22 01:34:14;;;;;;;1.40;1.30;;;5.30;99.90;;;;;;5133281;27;20203;-55
2022/01/22 01:36:44;;;;;;;1.50;1.40;;;5.20;99.90;;;;;;5115836;27;20208;-55
2022/01/22 01:39:17;;;;;;;1.83;1.40;;;5.30;99.90;;;;;;5112706;28;20208;-55
2022/01/22 01:41:55;;;;;;;1.63;1.40;;;5.30;99.90;;;;;;5124893;27;20278;-55
2022/01/22 01:44:23;;;;;;;1.80;1.40;;;5.30;99.90;;;;;;5112222;28;20199;-55
2022/01/22 01:46:56;;;;;;;2.00;1.47;;;5.30;99.90;;;;;;5112320;28;20244;-55
2022/01/22 01:49:24;;;;;;;1.70;1.43;;;5.30;99.90;;;;;;5112927;28;20233;-54
2022/01/22 01:51:55;;;;;;;1.47;1.37;;;5.40;99.90;;;;;;5111568;28;20262;-55
2022/01/22 01:54:31;;;;;;;1.53;1.43;;;5.30;99.90;;;;;;5115847;27;20195;-55
2022/01/22 01:59:47;;;;;;;1.43;1.33;;;5.30;99.90;;;;;;5121881;27;20203;-54
2022/01/22 02:02:16;;;;;;;1.80;1.70;;;5.30;99.90;;;;;;5112155;28;20266;-55
2022/01/22 02:04:44;;;;;;;1.60;1.50;;;5.30;99.90;;;;;;5112053;28;20257;-55
2022/01/22 02:07:13;;;;;;;1.97;1.87;;;5.30;99.90;;;;;;5112400;28;20246;-55
2022/01/22 02:09:43;;;;;;;1.90;1.80;;;5.30;99.90;;;;;;5121389;27;20225;-55
2022/01/22 02:12:17;;;;;;;1.60;1.50;;;5.30;99.90;;;;;;5111913;28;20599;-55
2022/01/22 02:25:55;;;;;;;1.83;1.73;;;5.40;99.90;;;;;;5110910;27;20642;-55
2022/01/22 02:28:23;;;;;;;2.37;1.80;;;5.30;99.90;;;;;;5118184;27;20678;-55
2022/01/22 02:30:57;;;;;;;1.87;1.77;;;5.40;99.90;;;;;;5111360;27;20271;-54
2022/01/22 02:33:33;;;;;;;1.93;1.77;;;5.40;99.90;;;;;;5111469;28;20904;-55
2022/01/22 02:36:07;;;;;;;1.63;1.53;;;5.30;99.90;;;;;;5111458;28;20729;-55
2022/01/22 02:38:47;;;;;;;1.70;1.60;;;5.30;99.90;;;;;;5111538;28;20211;-54
2022/01/22 02:41:18;;;;;;;1.60;1.50;;;5.30;99.90;;;;;;5111678;28;20254;-55
2022/01/22 02:43:47;;;;;;;1.60;1.50;;;5.30;99.90;;;;;;5110922;27;20571;-55
2022/01/22 02:46:17;;;;;;;1.73;1.63;;;5.40;99.90;;;;;;5111389;28;20217;-55
2022/01/22 02:48:46;;;;;;;1.70;1.60;;;5.40;99.90;;;;;;5111612;28;20260;-55
2022/01/22 02:51:14;;;;;;;1.30;1.30;;;5.40;99.90;;;;;;5110982;28;20229;-55
2022/01/22 02:53:43;;;;;;;1.60;1.50;;;5.40;99.90;;;;;;5111468;28;20248;-55
2022/01/22 02:56:11;;;;;;;1.40;1.30;;;5.40;99.90;;;;;;5111644;28;20245;-55
2022/01/22 02:58:40;;;;;;;1.43;1.33;;;5.30;99.90;;;;;;5104882;28;20234;-56
2022/01/22 03:01:08;;;;;;;1.30;1.20;;;5.30;99.90;;;;;;5091089;28;20235;-55
2022/01/22 03:03:38;;;;;;;1.40;1.30;;;5.40;99.90;;;;;;5091565;28;20258;-55
2022/01/22 03:06:06;;;;;;;1.23;1.10;;;5.30;99.90;;;;;;5090955;28;20280;-55
2022/01/22 03:08:34;;;;;;;1.33;1.30;;;5.30;99.90;;;;;;5107328;28;20212;-55
2022/01/22 03:11:15;;;;;;;1.00;1.00;;;5.30;99.90;;;;;;5111103;28;20215;-56
2022/01/22 03:19:32;;;;;;;1.00;1.00;;;5.30;99.90;;;;;;5131552;27;20260;-55
2022/01/22 03:22:13;;;;;;;1.30;1.20;;;5.30;99.90;;;;;;5112159;27;20222;-55
2022/01/22 03:27:30;;;;;;;1.17;1.17;;;5.30;99.90;;;;;;5111058;28;20279;-55
2022/01/22 03:29:59;;;;;;;0.90;0.90;;;5.30;99.90;;;;;;5130187;28;20211;-55
2022/01/22 03:32:32;;;;;;;1.10;1.10;;;5.30;99.90;;;;;;5130703;28;20663;-56
2022/01/22 03:35:09;;;;;;;1.00;1.00;;;5.30;99.90;;;;;;5129485;27;20190;-56
2022/01/22 03:37:38;;;;;;;1.00;1.00;;;5.40;99.90;;;;;;5111769;28;20621;-56
2022/01/22 03:40:08;;;;;;;1.50;1.07;;;5.40;99.90;;;;;;5114400;28;20772;-56
2022/01/22 03:42:38;;;;;;;1.00;1.00;;;5.40;99.90;;;;;;5114814;28;20703;-55
2022/01/22 03:45:09;;;;;;;1.10;1.00;;;5.40;99.90;;;;;;5122432;27;20235;-56
2022/01/22 03:47:37;;;;;;;0.70;0.70;;;5.30;99.90;;;;;;5135574;27;20203;-55
2022/01/22 03:50:08;;;;;;;0.80;0.80;;;5.30;99.90;;;;;;5135260;27;20220;-54
2022/01/22 03:52:36;;;;;;;0.77;0.77;;;5.30;99.90;;;;;;5130989;27;20196;-55
2022/01/22 03:55:05;;;;;;;2.73;0.77;;;5.30;99.90;;;;;;5114455;28;20212;-55
2022/01/22 03:57:34;;;;;;;0.70;0.70;;;5.30;99.90;;;;;;5114712;28;20212;-54
2022/01/22 04:00:05;;;;;;;0.90;0.90;;;5.40;99.90;;;;;;5117187;27;20663;-55
2022/01/22 04:05:15;;;;;;;0.70;0.70;;;5.30;99.90;;;;;;5092372;28;20270;-55
2022/01/22 04:10:29;;;;;;;0.80;0.80;;;5.30;99.90;;;;;;5114540;28;20259;-54
2022/01/22 04:13:01;;;;;;;0.73;0.73;;;5.30;99.90;;;;;;5119822;27;20667;-55
2022/01/22 04:15:33;;;;;;;0.90;0.90;;;5.30;99.90;;;;;;5134936;27;20202;-55
2022/01/22 04:26:28;;;;;;;0.80;0.80;;;5.30;99.90;;;;;;5113896;28;20275;-55
2022/01/22 04:28:57;;;;;;;0.70;0.70;;;5.30;99.90;;;;;;5117823;27;20202;-55
2022/01/22 04:31:27;;;;;;;1.20;1.10;;;5.30;99.90;;;;;;5134411;27;20246;-56
2022/01/22 04:33:55;;;;;;;0.70;0.70;;;5.30;99.90;;;;;;5134394;27;20203;-55
2022/01/22 04:36:23;;;;;;;1.43;0.90;;;5.20;99.90;;;;;;5120276;27;20207;-54
2022/01/22 04:38:51;;;;;;;0.80;0.80;;;5.30;99.90;;;;;;5113940;28;20229;-55
2022/01/22 04:41:20;;;;;;;0.60;0.60;;;5.30;99.90;;;;;;5121681;27;20262;-55
2022/01/22 04:43:50;;;;;;;0.70;0.70;;;5.30;99.90;;;;;;5092835;28;20231;-55
2022/01/22 04:46:22;;;;;;;0.90;0.90;;;5.30;99.90;;;;;;5102945;28;20203;-54
2022/01/22 04:49:06;;;;;;;0.90;0.90;;;5.30;99.90;;;;;;5113368;28;20272;-56
2022/01/22 04:57:10;;;;;;;0.70;0.70;;;5.30;99.90;;;;;;5102664;28;20268;-55
2022/01/22 04:59:39;;;;;;;0.90;0.90;;;5.30;99.90;;;;;;5108162;28;20208;-55
2022/01/22 05:02:07;;;;;;;1.00;0.90;;;5.30;99.90;;;;;;5113614;28;20259;-55
2022/01/22 05:04:36;;;;;;;0.70;0.70;;;5.30;99.90;;;;;;5113230;28;20251;-55
2022/01/22 05:07:05;;;;;;;0.80;0.80;;;5.40;99.90;;;;;;5112580;28;20211;-55
2022/01/22 05:09:33;;;;;;;0.90;0.90;;;5.40;99.90;;;;;;5113306;28;20218;-55
2022/01/22 05:12:01;;;;;;;0.80;0.80;;;5.30;99.90;;;;;;5113084;28;20273;-55
2022/01/22 05:14:29;;;;;;;1.20;0.90;;;5.30;99.90;;;;;;5112848;28;20205;-55
2022/01/22 05:16:59;;;;;;;0.90;0.90;;;5.30;99.90;;;;;;5113242;28;20208;-55
2022/01/22 05:19:33;;;;;;;1.00;1.00;;;5.30;99.90;;;;;;5112885;28;20626;-55
2022/01/22 05:22:12;;;;;;;0.87;0.87;;;5.40;99.90;;;;;;5102578;28;20309;-54
2022/01/22 05:24:44;;;;;;;0.90;0.90;;;5.40;99.90;;;;;;5111178;28;20273;-54
2022/01/22 05:27:32;;;;;;;1.00;1.00;;;5.40;99.90;;;;;;5102471;27;20210;-55
2022/01/22 05:30:08;;;;;;;0.97;0.90;;;5.40;99.90;;;;;;5091924;28;20208;-55
2022/01/22 05:32:54;;;;;;;1.00;1.00;;;5.40;99.90;;;;;;5092736;28;20208;-55
2022/01/22 05:38:09;;;;;;;1.00;1.00;;;5.40;99.90;;;;;;5112276;28;20217;-55
2022/01/22 05:40:37;;;;;;;0.90;0.90;;;5.40;99.90;;;;;;5112600;28;20747;-55
2022/01/22 05:43:06;;;;;;;0.80;0.80;;;5.40;99.90;;;;;;5112586;28;20235;-55
2022/01/22 05:45:34;;;;;;;0.83;0.83;;;5.40;99.90;;;;;;5112275;28;20204;-55
2022/01/22 05:48:02;;;;;;;0.80;0.80;;;5.40;99.90;;;;;;5112433;28;20203;-55
2022/01/22 05:50:34;;;;;;;4.07;1.07;;;5.40;99.90;;;;;;5112260;28;20777;-55
2022/01/22 05:53:07;;;;;;;1.17;1.13;;;5.40;99.90;;;;;;5112195;28;20241;-55
2022/01/22 06:01:12;;;;;;;0.80;0.80;;;5.50;99.90;;;;;;5107349;28;20217;-55
2022/01/22 06:03:40;;;;;;;0.90;0.90;;;5.50;99.90;;;;;;5111490;28;20220;-55
2022/01/22 06:06:09;;;;;;;0.90;0.90;;;5.50;99.90;;;;;;5130261;27;20214;-55
2022/01/22 06:08:44;;;;;;;1.33;1.10;;;5.50;99.90;;;;;;5124821;27;20204;-55
2022/01/22 06:11:21;;;;;;;1.07;1.07;;;5.50;99.90;;;;;;5120286;27;20263;-55
2022/01/22 06:13:50;;;;;;;1.03;1.00;;;5.50;99.90;;;;;;5121938;27;20194;-55
2022/01/22 06:16:19;;;;;;;0.93;0.93;;;5.60;99.90;;;;;;5129578;27;20277;-55
2022/01/22 06:18:48;;;;;;;0.97;0.97;;;5.60;99.90;;;;;;5123217;27;20203;-55
2022/01/22 06:21:16;;;;;;;1.13;1.03;;;5.60;99.90;;;;;;5124012;27;20227;-54
2022/01/22 06:23:45;;;;;;;1.03;1.03;;;5.60;99.90;;;;;;5118947;27;20211;-56
2022/01/22 06:26:15;;;;;;;0.90;0.90;;;5.50;99.90;;;;;;5125747;27;20634;-55
2022/01/22 06:28:43;;;;;;;1.27;1.00;;;5.60;99.90;;;;;;5127519;27;20239;-54
2022/01/22 06:31:11;;;;;;;0.97;0.97;;;5.60;99.90;;;;;;5131535;27;20219;-55
2022/01/22 06:33:40;;;;;;;0.90;0.90;;;5.60;99.90;;;;;;5125489;27;20198;-55
2022/01/22 06:36:08;;;;;;;0.87;0.87;;;5.60;99.90;;;;;;5124156;27;20206;-54
2022/01/22 06:38:36;;;;;;;1.00;1.00;;;5.60;99.90;;;;;;5121962;27;20255;-55
2022/01/22 06:43:51;;;;;;;1.93;1.83;;;5.60;99.90;;;;;;5117987;27;20213;-55
2022/01/22 06:46:19;;;;;;;1.07;1.07;;;5.60;99.90;;;;;;5108049;28;20872;-55
2022/01/22 06:48:48;;;;;;;1.50;1.40;;;5.50;99.90;;;;;;5111315;27;20199;-56
2022/01/22 06:51:17;;;;;;;1.37;1.27;;;5.50;99.90;;;;;;5122208;27;20570;-56
2022/01/22 06:53:45;;;;;;;1.20;1.10;;;5.50;99.90;;;;;;5118080;27;20234;-56
2022/01/22 06:56:19;;;;;;;1.43;1.33;;;5.50;99.90;;;;;;5124582;27;20231;-55
2022/01/22 06:58:47;;;;;;;1.30;1.23;;;5.60;99.90;;;;;;5110026;28;20241;-55
2022/01/22 07:01:17;;;;;;;1.27;1.13;;;5.60;99.90;;;;;;5112953;27;20387;-55
2022/01/22 07:03:45;;;;;;;1.80;1.70;;;5.60;99.90;;;;;;5122040;28;20648;-56
2022/01/22 07:06:13;;;;;;;1.83;1.73;;;5.60;99.90;;;;;;5121072;28;20685;-55
2022/01/22 07:08:41;;;;;;;1.90;1.80;;;5.60;99.90;;;;;;5116925;27;20256;-55
2022/01/22 07:11:10;;;;;;;2.60;1.80;;;5.60;99.90;;;;;;5112542;27;20222;-55
2022/01/22 07:13:38;;;;;;;2.07;1.97;;;5.60;99.90;;;;;;5121075;27;20663;-54
2022/01/22 07:16:07;;;;;;;1.97;1.80;;;5.60;99.90;;;;;;5112402;28;20647;-55
2022/01/22 07:18:36;;;;;;;1.80;1.70;;;5.50;99.90;;;;;;5115221;27;20268;-55
2022/01/22 07:21:14;;;;;;;2.07;1.97;;;5.50;99.90;;;;;;5100940;27;20227;-55
2022/01/22 07:26:24;;;;;;;2.00;1.77;;;5.60;99.90;;;;;;5109420;28;20204;-55
2022/01/22 07:28:52;;;;;;;4.70;2.00;;;5.60;99.90;;;;;;5110735;27;20204;-55
2022/01/22 07:31:23;;;;;;;1.90;1.80;;;5.60;99.90;;;;;;5114021;28;20285;-55
2022/01/22 07:33:53;;;;;;;2.20;2.10;;;5.70;99.90;;;;;;5114024;28;20666;-55
2022/01/22 07:36:21;;;;;;;3.87;3.57;;;5.70;99.90;;;;;;5113794;28;20264;-55
2022/01/22 07:38:49;;;;;;;3.30;3.10;;;5.70;99.90;;;;;;5113939;28;20239;-55
2022/01/22 07:41:18;;;;;;;3.60;3.30;;;5.70;99.90;;;;;;5113009;28;20303;-56
2022/01/22 07:43:48;;;;;;;4.30;3.60;;;5.70;99.90;;;;;;5097871;28;20217;-55
2022/01/22 07:46:16;;;;;;;3.43;3.13;;;5.70;99.90;;;;;;5093204;28;20697;-55
2022/01/22 07:48:44;;;;;;;2.80;2.60;;;5.70;99.90;;;;;;5104616;27;20237;-55
2022/01/22 07:51:14;;;;;;;2.90;2.60;;;5.80;99.90;;;;;;5092976;28;20570;-55
2022/01/22 07:53:44;;;;;;;2.93;2.50;;;5.80;99.90;;;;;;5106388;28;20201;-54
2022/01/22 07:56:12;;;;;;;3.00;2.80;;;5.90;99.90;;;;;;5112481;27;20284;-55
2022/01/22 07:58:41;;;;;;;3.37;3.07;;;5.70;99.90;;;;;;5104807;27;20209;-55
2022/01/22 08:01:10;;;;;;;17.87;16.37;;;5.70;99.90;;;;;;5116947;27;20231;-55
2022/01/22 08:03:38;;;;;;;5.63;5.17;;;5.80;99.90;;;;;;5113179;27;20220;-56
2022/01/22 08:06:06;;;;;;;4.50;3.20;;;5.70;99.90;;;;;;5093042;28;20597;-54
2022/01/22 08:08:37;;;;;;;6.00;5.60;;;5.60;99.90;;;;;;5099476;28;20573;-55
2022/01/22 08:11:05;;;;;;;2.90;2.47;;;5.60;99.90;;;;;;5097087;28;20297;-56
2022/01/22 08:13:33;;;;;;;2.60;2.40;;;5.60;99.90;;;;;;5109737;27;20232;-55
2022/01/22 08:16:01;;;;;;;2.70;2.50;;;5.60;99.90;;;;;;5109633;27;20268;-55
2022/01/22 08:18:29;;;;;;;2.30;2.10;;;5.70;99.90;;;;;;5105363;27;20205;-55
2022/01/22 08:20:58;;;;;;;2.87;2.67;;;5.70;99.90;;;;;;5116365;27;20225;-55
2022/01/22 08:23:26;;;;;;;10.00;9.07;;;5.70;99.90;;;;;;5126691;27;20213;-55
2022/01/22 08:25:55;;;;;;;6.13;5.63;;;5.80;99.90;;;;;;5120216;27;20269;-56
2022/01/22 08:31:20;;;;;;;11.07;7.53;;;5.90;99.90;;;;;;5099564;27;20215;-54
2022/01/22 08:36:34;;;;;;;3.47;3.17;;;5.90;99.90;;;;;;5107020;27;20985;-54
2022/01/22 08:39:02;;;;;;;2.20;1.73;;;6.00;99.90;;;;;;5094245;27;20733;-55
2022/01/22 08:41:31;;;;;;;2.60;2.40;;;6.10;99.90;;;;;;5108872;27;20252;-56
2022/01/22 08:44:00;;;;;;;2.77;2.00;;;6.10;99.90;;;;;;5110361;28;20250;-55
2022/01/22 08:46:29;;;;;;;20.53;14.30;;;6.10;99.90;;;;;;5112993;28;20227;-55
2022/01/22 08:48:58;;;;;;;29.80;22.77;;;6.20;99.90;;;;;;5113221;27;20243;-55
2022/01/22 08:51:26;;;;;;;17.50;12.33;;;6.20;99.90;;;;;;5093085;28;20230;-54
2022/01/22 08:53:55;;;;;;;2.23;2.03;;;6.30;99.90;;;;;;5112125;28;20628;-54
2022/01/22 08:56:23;;;;;;;2.50;2.30;;;6.30;99.90;;;;;;5108863;28;20192;-55
2022/01/22 08:58:53;;;;;;;4.97;4.37;;;6.30;99.90;;;;;;5098220;28;20209;-55
2022/01/22 09:01:22;;;;;;;2.93;2.00;;;6.30;99.90;;;;;;5110558;28;20255;-55
2022/01/22 09:03:51;;;;;;;3.10;2.03;;;6.40;99.90;;;;;;5111740;28;20210;-55
2022/01/22 09:06:20;;;;;;;2.57;1.90;;;6.40;99.90;;;;;;5112403;28;20235;-54
2022/01/22 09:08:51;;;;;;;1.70;1.60;;;6.50;99.90;;;;;;5112573;28;20210;-55
2022/01/22 09:11:20;;;;;;;2.17;1.30;;;6.50;99.90;;;;;;5098560;28;20276;-55
2022/01/22 09:13:48;;;;;;;1.60;1.50;;;6.50;99.90;;;;;;5111871;28;20223;-55
2022/01/22 09:16:18;;;;;;;1.40;1.30;;;6.50;99.90;;;;;;5106556;28;20231;-56
2022/01/22 09:18:46;;;;;;;1.77;1.60;;;6.50;99.90;;;;;;5097031;28;20290;-55
2022/01/22 09:21:14;;;;;;;2.80;2.10;;;6.50;99.90;;;;;;5112269;28;20231;-55
2022/01/22 09:23:42;;;;;;;3.13;2.80;;;6.60;99.90;;;;;;5108881;28;20218;-56
2022/01/22 09:26:11;;;;;;;2.30;2.10;;;6.60;99.90;;;;;;5111801;28;20271;-55
2022/01/22 09:28:39;;;;;;;4.07;3.37;;;6.60;99.90;;;;;;5112871;27;20205;-55
2022/01/22 09:31:07;;;;;;;1.53;1.43;;;6.70;99.90;;;;;;5105744;28;20296;-55
2022/01/22 09:33:38;;;;;;;2.50;2.30;;;6.70;99.90;;;;;;5112272;28;20241;-54
2022/01/22 09:36:10;;;;;;;2.43;2.23;;;6.80;99.90;;;;;;5111615;28;20443;-55
2022/01/22 09:38:38;;;;;;;2.10;1.80;;;6.70;99.90;;;;;;5108098;28;20216;-55
2022/01/22 09:41:06;;;;;;;2.87;2.00;;;6.70;99.90;;;;;;5097652;28;20230;-56
2022/01/22 09:43:34;;;;;;;14.57;12.30;;;6.80;99.90;;;;;;5113474;27;20589;-56
2022/01/22 09:46:05;;;;;;;12.10;10.67;;;6.90;99.90;;;;;;5111650;28;20743;-54
2022/01/22 09:48:33;;;;;;;1.83;1.67;;;6.90;99.90;;;;;;5108477;28;20215;-55
2022/01/22 09:51:03;;;;;;;2.20;1.50;;;6.90;99.90;;;;;;5091234;28;20246;-56
2022/01/22 09:53:31;;;;;;;2.47;1.80;;;6.90;99.90;;;;;;5102825;28;20271;-55
2022/01/22 09:55:59;;;;;;;1.53;1.43;;;6.90;99.90;;;;;;5109322;28;20232;-55
2022/01/22 09:58:27;;;;;;;5.13;4.23;;;6.90;99.90;;;;;;5110600;27;20248;-55
2022/01/22 10:01:15;;;;;;;10.47;7.17;;;6.90;99.90;;;;;;5109977;28;20599;-56
2022/01/22 10:03:43;;;;;;;1.50;1.40;;;6.90;99.90;;;;;;5107766;28;20217;-55
2022/01/22 10:06:16;;;;;;;2.43;2.23;;;7.00;99.90;;;;;;5107512;27;20219;-55
2022/01/22 10:08:44;;;;;;;13.03;10.43;;;7.00;99.90;;;;;;5101511;27;20206;-55
2022/01/22 10:11:20;;;;;;;3.70;3.30;;;7.00;99.90;;;;;;5092717;28;20281;-56
2022/01/22 10:13:51;;;;;;;1.57;1.47;;;7.00;99.90;;;;;;5102475;27;20218;-56
2022/01/22 10:16:24;;;;;;;2.07;1.70;;;7.10;99.90;;;;;;5127081;27;20283;-55
2022/01/22 10:19:13;;;;;;;2.37;2.03;;;7.10;99.90;;;;;;5129723;27;20209;-56
2022/01/22 10:21:45;;;;;;;1.20;1.10;;;7.10;99.90;;;;;;5125722;27;20227;-56
2022/01/22 10:24:37;;;;;;;1.33;1.20;;;7.10;99.90;;;;;;5109280;28;20243;-55
2022/01/22 10:27:24;;;;;;;10.03;9.13;;;7.10;99.90;;;;;;5112359;27;20248;-55
2022/01/22 10:29:56;;;;;;;5.90;5.40;;;7.20;99.90;;;;;;5129621;27;20255;-55
2022/01/22 10:32:37;;;;;;;7.03;6.43;;;7.20;99.90;;;;;;5132445;27;20236;-55
2022/01/22 10:35:08;;;;;;;7.37;6.77;;;7.20;99.90;;;;;;5127769;27;20207;-56
2022/01/22 10:37:39;;;;;;;8.90;8.10;;;7.20;99.90;;;;;;5102470;28;20688;-56
2022/01/22 10:40:27;;;;;;;19.00;17.17;;;7.30;99.90;;;;;;5090594;28;20232;-56
2022/01/22 10:43:19;;;;;;;7.10;6.50;;;7.40;99.90;;;;;;5118249;27;20733;-57
2022/01/22 10:46:11;;;;;;;6.07;5.53;;;7.40;99.90;;;;;;5125817;27;20213;-55
2022/01/22 10:48:43;;;;;;;7.37;6.67;;;7.40;99.90;;;;;;5127490;27;20199;-55
2022/01/22 10:51:13;;;;;;;3.40;2.53;;;7.30;99.90;;;;;;5129125;27;20256;-56
2022/01/22 10:53:48;;;;;;;1.90;1.70;;;7.30;99.90;;;;;;5122262;28;20267;-55
2022/01/22 10:56:19;;;;;;;2.00;1.80;;;7.30;99.90;;;;;;5116863;27;20234;-55
2022/01/22 10:58:57;;;;;;;0.60;0.60;;;7.30;99.90;;;;;;5090625;28;20752;-54
2022/01/22 11:01:27;;;;;;;0.60;0.60;;;7.30;99.90;;;;;;5103342;28;20772;-55
2022/01/22 11:04:08;;;;;;;1.20;1.10;;;7.20;99.90;;;;;;5111617;28;20297;-56
2022/01/22 11:06:36;;;;;;;0.80;0.80;;;7.20;99.90;;;;;;5111378;28;20288;-55
2022/01/22 11:09:07;;;;;;;0.60;0.60;;;7.30;99.90;;;;;;5111400;28;20202;-55
2022/01/22 11:11:39;;;;;;;1.07;0.97;;;7.30;99.90;;;;;;5094039;28;20229;-55
2022/01/22 11:14:08;;;;;;;0.93;0.93;;;7.30;99.90;;;;;;5103042;28;20585;-54
2022/01/22 11:16:39;;;;;;;0.73;0.73;;;7.30;99.90;;;;;;5107900;28;20202;-56
2022/01/22 11:19:16;;;;;;;1.43;1.20;;;7.40;99.90;;;;;;5103848;28;20252;-56
2022/01/22 11:21:47;;;;;;;1.30;1.20;;;7.40;99.90;;;;;;5097480;28;21063;-56
2022/01/22 11:24:19;;;;;;;0.77;0.77;;;7.50;99.90;;;;;;5110237;28;20262;-55
2022/01/22 11:26:51;;;;;;;1.60;1.50;;;7.50;99.90;;;;;;5109317;28;20618;-55
2022/01/22 11:29:21;;;;;;;1.20;1.10;;;7.40;99.90;;;;;;5109138;28;20548;-56
2022/01/22 11:31:51;;;;;;;0.70;0.70;;;7.40;99.90;;;;;;5109568;28;20283;-56
2022/01/22 11:34:24;;;;;;;1.00;0.90;;;7.40;99.90;;;;;;5108039;28;20207;-54
2022/01/22 11:36:58;;;;;;;0.77;0.77;;;7.40;99.90;;;;;;5106734;28;20761;-55
2022/01/22 11:39:29;;;;;;;1.97;1.77;;;7.40;99.90;;;;;;5101328;28;20202;-54
2022/01/22 11:42:00;;;;;;;2.57;2.00;;;7.40;99.90;;;;;;5103594;28;20225;-55
2022/01/22 11:44:39;;;;;;;0.70;0.70;;;7.40;99.90;;;;;;5109855;28;20269;-55
2022/01/22 11:47:11;;;;;;;0.80;0.80;;;7.40;99.90;;;;;;5097733;28;20265;-54
2022/01/22 11:49:40;;;;;;;0.70;0.70;;;7.40;99.90;;;;;;5110742;28;20246;-56
2022/01/22 11:52:27;;;;;;;1.50;1.40;;;7.40;99.90;;;;;;5108245;28;20263;-56
2022/01/22 11:55:00;;;;;;;1.70;1.30;;;7.50;99.90;;;;;;5111099;28;20251;-54
2022/01/22 11:57:30;;;;;;;1.00;0.90;;;7.50;99.90;;;;;;5117334;28;20200;-55
2022/01/22 12:00:19;;;;;;;2.73;2.47;;;7.50;99.90;;;;;;5111375;28;20198;-55
2022/01/22 12:03:20;;;;;;;0.97;0.87;;;7.50;99.90;;;;;;5112174;28;20252;-55
2022/01/22 12:06:09;;;;;;;0.80;0.80;;;7.50;99.90;;;;;;5113904;28;20365;-55
2022/01/22 12:09:09;;;;;;;1.33;1.27;;;7.50;99.90;;;;;;5100811;28;20574;-55
2022/01/22 12:14:58;;;;;;;1.77;1.60;;;7.50;99.90;;;;;;5112884;28;20205;-54
2022/01/22 12:18:05;;;;;;;7.50;6.60;;;7.60;99.90;;;;;;5057756;28;20233;-55
2022/01/22 12:23:48;;;;;;;5.53;4.33;;;7.60;99.90;;;;;;5111361;27;20211;-55
2022/01/22 12:26:16;;;;;;;4.53;3.47;;;7.60;99.90;;;;;;5122331;27;20255;-56
2022/01/22 12:28:48;;;;;;;7.93;7.13;;;7.70;99.90;;;;;;5120587;27;20233;-56
2022/01/22 12:31:19;;;;;;;16.50;12.33;;;7.70;99.90;;;;;;5113331;28;20227;-55
2022/01/22 12:33:52;;;;;;;5.77;5.03;;;7.70;99.90;;;;;;5113430;28;20195;-55
2022/01/22 12:36:26;;;;;;;105.63;63.33;;;7.80;99.90;;;;;;5113615;28;20643;-54
2022/01/22 12:39:05;;;;;;;56.43;44.50;;;7.80;99.90;;;;;;5109676;28;20195;-55
2022/01/22 12:41:46;;;;;;;6.67;5.97;;;7.80;99.90;;;;;;5108003;27;20226;-56
2022/01/22 12:44:26;;;;;;;6.10;5.53;;;7.80;99.90;;;;;;5117569;27;20214;-56
2022/01/22 12:46:56;;;;;;;3.90;3.10;;;7.80;99.90;;;;;;5111057;28;20285;-56
2022/01/22 12:49:26;;;;;;;2.33;2.13;;;7.90;99.90;;;;;;5114583;28;20214;-55
2022/01/22 12:51:57;;;;;;;2.83;2.63;;;7.90;99.90;;;;;;5103899;28;20278;-55
2022/01/22 12:54:29;;;;;;;2.53;2.33;;;7.90;99.90;;;;;;5100087;27;20212;-55
2022/01/22 12:57:05;;;;;;;1.20;1.10;;;7.90;99.90;;;;;;5095504;28;20318;-54
2022/01/22 12:59:47;;;;;;;1.30;1.20;;;8.00;99.90;;;;;;5094142;28;20257;-56
2022/01/22 13:02:25;;;;;;;1.53;1.43;;;7.90;99.90;;;;;;5104710;28;20580;-55
2022/01/22 13:05:03;;;;;;;2.30;2.10;;;7.90;99.90;;;;;;5113859;28;20207;-55
2022/01/22 13:07:40;;;;;;;2.13;2.03;;;7.90;99.90;;;;;;5101012;28;20224;-56
2022/01/22 13:10:09;;;;;;;1.50;1.40;;;8.00;99.90;;;;;;5107730;27;20776;-56
2022/01/22 13:12:42;;;;;;;2.17;1.97;;;7.90;99.90;;;;;;5124772;27;20203;-55
2022/01/22 13:15:11;;;;;;;1.53;1.43;;;7.90;99.90;;;;;;5126211;27;20203;-56
2022/01/22 13:17:40;;;;;;;1.37;1.27;;;7.90;99.90;;;;;;5096664;27;20235;-55
2022/01/22 13:20:19;;;;;;;1.80;1.70;;;7.90;99.90;;;;;;5131322;27;20234;-55
2022/01/22 13:22:48;;;;;;;1.73;1.63;;;7.80;99.90;;;;;;5092557;28;20574;-56
2022/01/22 13:25:17;;;;;;;2.97;2.67;;;7.80;99.90;;;;;;5092103;28;20277;-55
2022/01/22 13:28:00;;;;;;;5.53;3.37;;;7.80;99.90;;;;;;5131105;27;20252;-55
2022/01/22 13:30:32;;;;;;;2.83;1.73;;;7.80;99.90;;;;;;5109810;28;20271;-56
2022/01/22 13:33:14;;;;;;;1.63;1.53;;;7.80;99.90;;;;;;5092814;28;20657;-54
2022/01/22 13:36:13;;;;;;;2.87;2.37;;;7.80;99.90;;;;;;5103850;28;20708;-55
2022/01/22 13:39:01;;;;;;;3.10;2.80;;;7.80;99.90;;;;;;5112432;28;20267;-55
2022/01/22 13:49:52;;;;;;;3.17;2.90;;;7.80;99.90;;;;;;5100384;28;20333;-56
2022/01/22 13:52:21;;;;;;;1.87;1.77;;;7.70;99.90;;;;;;5114020;27;20265;-55
2022/01/22 13:54:54;;;;;;;3.70;1.30;;;7.70;99.90;;;;;;5128617;27;20262;-55
2022/01/22 13:57:24;;;;;;;1.60;1.50;;;7.70;99.90;;;;;;5109951;27;20734;-55
2022/01/22 13:59:55;;;;;;;1.50;1.40;;;7.80;99.90;;;;;;5119162;27;20586;-55
2022/01/22 14:02:37;;;;;;;1.57;1.47;;;7.80;99.90;;;;;;5111974;28;20675;-55
2022/01/22 14:05:08;;;;;;;1.70;1.60;;;7.70;99.90;;;;;;5109441;28;20229;-55
2022/01/22 14:07:41;;;;;;;1.50;1.40;;;7.70;99.90;;;;;;5091201;28;20246;-55
2022/01/22 14:10:15;;;;;;;1.53;1.43;;;7.70;99.90;;;;;;5101182;27;20215;-56
2022/01/22 14:12:52;;;;;;;1.80;1.70;;;7.70;99.90;;;;;;5095719;28;20248;-55
2022/01/22 14:15:35;;;;;;;1.50;1.40;;;7.70;99.90;;;;;;5101014;28;20246;-55
2022/01/22 14:18:16;;;;;;;1.70;1.60;;;7.60;99.90;;;;;;5111858;28;20268;-55
2022/01/22 14:20:46;;;;;;;1.70;1.60;;;7.60;99.90;;;;;;5104673;28;20708;-55
2022/01/22 14:23:16;;;;;;;1.70;1.60;;;7.60;99.90;;;;;;5108089;28;20207;-55
2022/01/22 14:25:57;;;;;;;5.10;4.00;;;7.50;99.90;;;;;;5099141;28;20256;-55
2022/01/22 14:28:37;;;;;;;2.03;1.70;;;7.50;99.90;;;;;;5108904;28;20226;-55
2022/01/22 14:31:24;;;;;;;3.20;2.90;;;7.50;99.90;;;;;;5114725;27;20221;-55
2022/01/22 14:33:53;;;;;;;1.93;1.83;;;7.50;99.90;;;;;;5121057;27;20214;-55
2022/01/22 14:36:23;;;;;;;2.73;1.87;;;7.50;99.90;;;;;;5109916;28;20570;-54
2022/01/22 14:38:55;;;;;;;2.50;1.90;;;7.40;99.90;;;;;;5110531;28;20198;-54
2022/01/22 14:47:02;;;;;;;5.03;4.33;;;7.30;99.90;;;;;;5104777;28;20207;-55
2022/01/22 14:49:39;;;;;;;4.83;4.27;;;7.30;99.90;;;;;;5107052;28;20222;-55
2022/01/22 14:52:09;;;;;;;2.53;2.33;;;7.30;99.90;;;;;;5093554;27;20269;-55
2022/01/22 14:54:39;;;;;;;2.50;2.30;;;7.30;99.90;;;;;;5130434;27;20245;-55
2022/01/22 14:57:10;;;;;;;3.00;2.37;;;7.30;99.90;;;;;;5112973;28;20198;-54